Airfield :
LOGIN :

Register | Disclaimer

   EN    FR    IT 

 










Legend :    VFR   Marginal VFR   IFR   Intensive IFR   Very Intensive IFR
Visi :
Ceiling :
>= 8 km
>= 3000ft
5 to 8 km
1000 to 3000 ft
1500m to 5 km
500 to 1000 ft
800 to 1500m
200 to 500 ft
< 800m
< 200 ft
Symbols :   Thunderstorms  Fog  Heavy snow  Heavy precipitations  Wind > 20 kt
SIGMETs :     Misc.  Thunderstorms  Icing  Turbulence  Mountain Waves  Volcanic Ashes






- Airport Elevation : 1234 ft
- IATA code : LUX


ELLX - Luxembourg Findel

CURRENT METAR :
  • 011420Z 04011KT 7000 BKN007 04/03 Q1023 TEMPO 4500 -DZ

EXPIRED METARs :
  • 011350Z 03011KT 9000 BKN009 05/03 Q1023 NOSIG
  • 011320Z 02010KT 9999 BKN010 05/03 Q1023 NOSIG
  • 011250Z 03011KT 9999 BKN012 05/03 Q1023 NOSIG
  • 011220Z 03011KT 9999 BKN012 05/03 Q1023 NOSIG
  • 011150Z 02010KT 350V050 9999 BKN010 05/03 Q1023 NOSIG

TAF TAF ELLX
Valid from the 01 at 12:00 until the 02 at 18:00 UTC


011100Z 0112/0218 03010KT 9999 BKN012
BECMG 0200/0203 BKN007
BECMG 0210/0212 BKN010
PROB30
TEMPO 0217/0218 -RASN BKN008
ATIS : +352 4798 27300
Met : +352 4798 27010 / 27050



MET'MAP, your aeronautical weather chart ! - Copyright ORBIFLY December 2007 - Disclaimer

ORBIFLY MET'MAP TEAM :

Programming & Development : Alexandra Zaïnal
Original concept : Baudouin d'Aumeries
Technical & hardware support : Manuel Goepfert
Assistance : Marc-Olivier Méhu




SOURCES & CREDITS :

   NOAA